sensor_id;sensor_type;location;lat;lon;timestamp;P1;durP1;ratioP1;P2;durP2;ratioP2
11731;SDS011;5922;53.734;10.258;2023-06-22T00:02:21;3.60;;;3.30;;
11731;SDS011;5922;53.734;10.258;2023-06-22T00:04:48;5.67;;;3.50;;
11731;SDS011;5922;53.734;10.258;2023-06-22T00:07:15;3.57;;;3.27;;
11731;SDS011;5922;53.734;10.258;2023-06-22T00:09:43;4.23;;;3.83;;
11731;SDS011;5922;53.734;10.258;2023-06-22T00:12:11;4.20;;;3.70;;
11731;SDS011;5922;53.734;10.258;2023-06-22T00:14:39;4.53;;;3.60;;
11731;SDS011;5922;53.734;10.258;2023-06-22T00:17:06;4.23;;;3.83;;
11731;SDS011;5922;53.734;10.258;2023-06-22T00:19:33;3.67;;;3.37;;
11731;SDS011;5922;53.734;10.258;2023-06-22T00:22:01;4.27;;;3.30;;
11731;SDS011;5922;53.734;10.258;2023-06-22T00:24:29;4.90;;;3.40;;
11731;SDS011;5922;53.734;10.258;2023-06-22T00:26:56;4.47;;;3.73;;
11731;SDS011;5922;53.734;10.258;2023-06-22T00:29:25;3.53;;;3.20;;
11731;SDS011;5922;53.734;10.258;2023-06-22T00:31:52;4.20;;;3.40;;
11731;SDS011;5922;53.734;10.258;2023-06-22T00:34:19;4.50;;;3.70;;
11731;SDS011;5922;53.734;10.258;2023-06-22T00:36:46;4.00;;;3.60;;
11731;SDS011;5922;53.734;10.258;2023-06-22T00:39:14;3.80;;;3.50;;
11731;SDS011;5922;53.734;10.258;2023-06-22T00:41:41;4.47;;;3.30;;
11731;SDS011;5922;53.734;10.258;2023-06-22T00:44:08;4.47;;;4.00;;
11731;SDS011;5922;53.734;10.258;2023-06-22T00:46:37;3.97;;;3.67;;
11731;SDS011;5922;53.734;10.258;2023-06-22T00:49:04;4.43;;;3.50;;
11731;SDS011;5922;53.734;10.258;2023-06-22T00:51:31;4.27;;;3.87;;
11731;SDS011;5922;53.734;10.258;2023-06-22T00:53:59;6.10;;;3.80;;
11731;SDS011;5922;53.734;10.258;2023-06-22T00:56:26;4.10;;;3.70;;
11731;SDS011;5922;53.734;10.258;2023-06-22T00:58:54;4.60;;;3.23;;
11731;SDS011;5922;53.734;10.258;2023-06-22T01:01:22;6.13;;;4.37;;
11731;SDS011;5922;53.734;10.258;2023-06-22T01:03:51;4.00;;;3.60;;
11731;SDS011;5922;53.734;10.258;2023-06-22T01:06:25;5.03;;;3.97;;
11731;SDS011;5922;53.734;10.258;2023-06-22T01:08:56;4.43;;;3.23;;
11731;SDS011;5922;53.734;10.258;2023-06-22T01:11:28;4.50;;;4.00;;
11731;SDS011;5922;53.734;10.258;2023-06-22T01:14:00;4.60;;;3.80;;
11731;SDS011;5922;53.734;10.258;2023-06-22T01:16:28;3.87;;;3.50;;
11731;SDS011;5922;53.734;10.258;2023-06-22T01:18:57;5.30;;;4.57;;
11731;SDS011;5922;53.734;10.258;2023-06-22T01:21:28;5.03;;;3.87;;
11731;SDS011;5922;53.734;10.258;2023-06-22T01:23:57;4.97;;;3.80;;
11731;SDS011;5922;53.734;10.258;2023-06-22T01:26:28;6.73;;;3.93;;
11731;SDS011;5922;53.734;10.258;2023-06-22T01:29:01;6.07;;;3.90;;
11731;SDS011;5922;53.734;10.258;2023-06-22T01:31:31;4.63;;;4.03;;
11731;SDS011;5922;53.734;10.258;2023-06-22T01:34:01;4.50;;;4.10;;
11731;SDS011;5922;53.734;10.258;2023-06-22T01:36:28;4.53;;;4.13;;
11731;SDS011;5922;53.734;10.258;2023-06-22T01:38:56;5.50;;;4.13;;
11731;SDS011;5922;53.734;10.258;2023-06-22T01:41:25;7.07;;;4.53;;
11731;SDS011;5922;53.734;10.258;2023-06-22T01:43:52;5.47;;;4.47;;
11731;SDS011;5922;53.734;10.258;2023-06-22T01:46:22;4.27;;;3.63;;
11731;SDS011;5922;53.734;10.258;2023-06-22T01:48:49;4.30;;;3.90;;
11731;SDS011;5922;53.734;10.258;2023-06-22T01:51:17;4.87;;;3.90;;
11731;SDS011;5922;53.734;10.258;2023-06-22T01:53:44;5.63;;;3.90;;
11731;SDS011;5922;53.734;10.258;2023-06-22T01:56:12;4.97;;;4.40;;
11731;SDS011;5922;53.734;10.258;2023-06-22T01:58:41;5.57;;;4.73;;
11731;SDS011;5922;53.734;10.258;2023-06-22T02:01:12;4.47;;;4.00;;
11731;SDS011;5922;53.734;10.258;2023-06-22T02:03:42;5.53;;;4.20;;
11731;SDS011;5922;53.734;10.258;2023-06-22T02:06:13;5.60;;;4.10;;
11731;SDS011;5922;53.734;10.258;2023-06-22T02:08:43;5.07;;;3.97;;
11731;SDS011;5922;53.734;10.258;2023-06-22T02:11:12;4.30;;;3.90;;
11731;SDS011;5922;53.734;10.258;2023-06-22T02:13:40;5.37;;;3.83;;
11731;SDS011;5922;53.734;10.258;2023-06-22T02:16:08;5.37;;;4.30;;
11731;SDS011;5922;53.734;10.258;2023-06-22T02:18:35;4.57;;;4.10;;
11731;SDS011;5922;53.734;10.258;2023-06-22T02:21:04;4.97;;;4.20;;
11731;SDS011;5922;53.734;10.258;2023-06-22T02:23:31;5.73;;;4.37;;
11731;SDS011;5922;53.734;10.258;2023-06-22T02:26:00;6.43;;;4.37;;
11731;SDS011;5922;53.734;10.258;2023-06-22T02:28:27;5.47;;;4.97;;
11731;SDS011;5922;53.734;10.258;2023-06-22T02:30:55;5.37;;;4.67;;
11731;SDS011;5922;53.734;10.258;2023-06-22T02:33:22;4.53;;;4.13;;
11731;SDS011;5922;53.734;10.258;2023-06-22T02:35:49;5.70;;;4.53;;
11731;SDS011;5922;53.734;10.258;2023-06-22T02:38:18;5.50;;;4.97;;
11731;SDS011;5922;53.734;10.258;2023-06-22T02:40:45;4.73;;;4.30;;
11731;SDS011;5922;53.734;10.258;2023-06-22T02:43:12;6.27;;;4.57;;
11731;SDS011;5922;53.734;10.258;2023-06-22T02:45:40;5.00;;;4.40;;
11731;SDS011;5922;53.734;10.258;2023-06-22T02:48:07;8.60;;;5.33;;
11731;SDS011;5922;53.734;10.258;2023-06-22T02:50:34;6.23;;;4.57;;
11731;SDS011;5922;53.734;10.258;2023-06-22T02:53:01;5.33;;;4.83;;
11731;SDS011;5922;53.734;10.258;2023-06-22T02:55:30;6.03;;;4.47;;
11731;SDS011;5922;53.734;10.258;2023-06-22T02:57:57;5.73;;;4.50;;
11731;SDS011;5922;53.734;10.258;2023-06-22T03:00:25;5.07;;;4.57;;
11731;SDS011;5922;53.734;10.258;2023-06-22T03:02:55;7.07;;;4.93;;
11731;SDS011;5922;53.734;10.258;2023-06-22T03:05:23;5.13;;;4.63;;
11731;SDS011;5922;53.734;10.258;2023-06-22T03:07:51;5.67;;;5.17;;
11731;SDS011;5922;53.734;10.258;2023-06-22T03:10:18;5.73;;;4.60;;
11731;SDS011;5922;53.734;10.258;2023-06-22T03:12:47;5.47;;;4.97;;
11731;SDS011;5922;53.734;10.258;2023-06-22T03:15:14;5.60;;;5.10;;
11731;SDS011;5922;53.734;10.258;2023-06-22T03:17:42;5.63;;;4.70;;
11731;SDS011;5922;53.734;10.258;2023-06-22T03:20:09;7.20;;;4.60;;
11731;SDS011;5922;53.734;10.258;2023-06-22T03:22:37;8.23;;;4.70;;
11731;SDS011;5922;53.734;10.258;2023-06-22T03:25:04;6.03;;;4.50;;
11731;SDS011;5922;53.734;10.258;2023-06-22T03:27:35;8.57;;;5.40;;
11731;SDS011;5922;53.734;10.258;2023-06-22T03:30:04;6.67;;;5.10;;
11731;SDS011;5922;53.734;10.258;2023-06-22T03:32:32;7.77;;;4.90;;
11731;SDS011;5922;53.734;10.258;2023-06-22T03:34:59;6.10;;;4.77;;
11731;SDS011;5922;53.734;10.258;2023-06-22T03:37:27;5.40;;;4.90;;
11731;SDS011;5922;53.734;10.258;2023-06-22T03:39:54;6.20;;;4.37;;
11731;SDS011;5922;53.734;10.258;2023-06-22T03:42:22;5.53;;;4.80;;
11731;SDS011;5922;53.734;10.258;2023-06-22T03:44:49;7.57;;;5.07;;
11731;SDS011;5922;53.734;10.258;2023-06-22T03:47:17;7.00;;;5.10;;
11731;SDS011;5922;53.734;10.258;2023-06-22T03:49:45;7.87;;;5.67;;
11731;SDS011;5922;53.734;10.258;2023-06-22T03:52:12;8.83;;;5.80;;
11731;SDS011;5922;53.734;10.258;2023-06-22T03:54:39;9.37;;;5.83;;
11731;SDS011;5922;53.734;10.258;2023-06-22T03:57:06;6.47;;;5.30;;
11731;SDS011;5922;53.734;10.258;2023-06-22T03:59:33;6.97;;;5.83;;
11731;SDS011;5922;53.734;10.258;2023-06-22T04:02:01;8.80;;;6.30;;
11731;SDS011;5922;53.734;10.258;2023-06-22T04:04:30;8.30;;;6.23;;
11731;SDS011;5922;53.734;10.258;2023-06-22T04:06:58;8.20;;;6.37;;
11731;SDS011;5922;53.734;10.258;2023-06-22T04:09:25;7.80;;;6.27;;
11731;SDS011;5922;53.734;10.258;2023-06-22T04:11:53;6.33;;;5.67;;
11731;SDS011;5922;53.734;10.258;2023-06-22T04:14:20;9.47;;;6.47;;
11731;SDS011;5922;53.734;10.258;2023-06-22T04:16:47;9.90;;;6.43;;
11731;SDS011;5922;53.734;10.258;2023-06-22T04:19:14;8.27;;;6.73;;
11731;SDS011;5922;53.734;10.258;2023-06-22T04:21:44;9.13;;;6.63;;
11731;SDS011;5922;53.734;10.258;2023-06-22T04:24:13;10.53;;;6.80;;
11731;SDS011;5922;53.734;10.258;2023-06-22T04:26:40;9.60;;;6.67;;
11731;SDS011;5922;53.734;10.258;2023-06-22T04:29:10;11.37;;;7.20;;
11731;SDS011;5922;53.734;10.258;2023-06-22T04:31:37;7.57;;;6.73;;
11731;SDS011;5922;53.734;10.258;2023-06-22T04:34:05;10.30;;;7.53;;
11731;SDS011;5922;53.734;10.258;2023-06-22T04:36:33;9.63;;;6.83;;
11731;SDS011;5922;53.734;10.258;2023-06-22T04:39:05;7.63;;;6.83;;
11731;SDS011;5922;53.734;10.258;2023-06-22T04:41:34;10.17;;;7.20;;
11731;SDS011;5922;53.734;10.258;2023-06-22T04:44:10;8.90;;;6.77;;
11731;SDS011;5922;53.734;10.258;2023-06-22T04:46:38;8.97;;;6.60;;
11731;SDS011;5922;53.734;10.258;2023-06-22T04:49:06;8.40;;;6.53;;
11731;SDS011;5922;53.734;10.258;2023-06-22T04:51:36;7.80;;;7.00;;
11731;SDS011;5922;53.734;10.258;2023-06-22T04:54:04;8.57;;;6.87;;
11731;SDS011;5922;53.734;10.258;2023-06-22T04:56:34;9.27;;;7.30;;
11731;SDS011;5922;53.734;10.258;2023-06-22T04:59:06;8.27;;;7.00;;
11731;SDS011;5922;53.734;10.258;2023-06-22T05:01:33;9.20;;;6.97;;
11731;SDS011;5922;53.734;10.258;2023-06-22T05:06:48;8.47;;;6.87;;
11731;SDS011;5922;53.734;10.258;2023-06-22T05:09:20;9.67;;;7.17;;
11731;SDS011;5922;53.734;10.258;2023-06-22T05:11:47;8.17;;;6.80;;
11731;SDS011;5922;53.734;10.258;2023-06-22T05:14:14;8.60;;;6.90;;
11731;SDS011;5922;53.734;10.258;2023-06-22T05:16:42;10.20;;;7.07;;
11731;SDS011;5922;53.734;10.258;2023-06-22T05:19:09;8.53;;;6.87;;
11731;SDS011;5922;53.734;10.258;2023-06-22T05:21:37;7.20;;;6.10;;
11731;SDS011;5922;53.734;10.258;2023-06-22T05:24:04;8.33;;;6.17;;
11731;SDS011;5922;53.734;10.258;2023-06-22T05:26:33;8.10;;;6.60;;
11731;SDS011;5922;53.734;10.258;2023-06-22T05:29:01;9.83;;;6.13;;
11731;SDS011;5922;53.734;10.258;2023-06-22T05:31:29;9.47;;;5.70;;
11731;SDS011;5922;53.734;10.258;2023-06-22T05:33:56;8.33;;;5.83;;
11731;SDS011;5922;53.734;10.258;2023-06-22T05:36:24;6.97;;;5.40;;
11731;SDS011;5922;53.734;10.258;2023-06-22T05:38:52;7.17;;;5.50;;
11731;SDS011;5922;53.734;10.258;2023-06-22T05:41:19;7.27;;;5.27;;
11731;SDS011;5922;53.734;10.258;2023-06-22T05:43:48;8.63;;;4.90;;
11731;SDS011;5922;53.734;10.258;2023-06-22T05:46:15;8.70;;;5.50;;
11731;SDS011;5922;53.734;10.258;2023-06-22T05:48:43;8.40;;;5.10;;
11731;SDS011;5922;53.734;10.258;2023-06-22T05:51:10;6.07;;;5.03;;
11731;SDS011;5922;53.734;10.258;2023-06-22T05:53:37;8.50;;;4.90;;
11731;SDS011;5922;53.734;10.258;2023-06-22T05:56:04;5.53;;;4.70;;
11731;SDS011;5922;53.734;10.258;2023-06-22T05:58:34;8.33;;;4.57;;
11731;SDS011;5922;53.734;10.258;2023-06-22T06:01:04;6.13;;;4.67;;
11731;SDS011;5922;53.734;10.258;2023-06-22T06:03:32;7.40;;;4.77;;
11731;SDS011;5922;53.734;10.258;2023-06-22T06:05:59;6.77;;;4.27;;
11731;SDS011;5922;53.734;10.258;2023-06-22T06:08:27;6.40;;;3.80;;
11731;SDS011;5922;53.734;10.258;2023-06-22T06:10:54;4.30;;;3.87;;
11731;SDS011;5922;53.734;10.258;2023-06-22T06:13:22;6.87;;;4.23;;
11731;SDS011;5922;53.734;10.258;2023-06-22T06:15:50;4.37;;;3.80;;
11731;SDS011;5922;53.734;10.258;2023-06-22T06:18:21;7.07;;;4.53;;
11731;SDS011;5922;53.734;10.258;2023-06-22T06:20:51;5.67;;;4.03;;
11731;SDS011;5922;53.734;10.258;2023-06-22T06:23:23;5.33;;;4.47;;
11731;SDS011;5922;53.734;10.258;2023-06-22T06:25:57;4.73;;;3.70;;
11731;SDS011;5922;53.734;10.258;2023-06-22T06:28:25;6.47;;;3.60;;
11731;SDS011;5922;53.734;10.258;2023-06-22T06:30:52;4.60;;;3.40;;
11731;SDS011;5922;53.734;10.258;2023-06-22T06:33:24;4.93;;;3.67;;
11731;SDS011;5922;53.734;10.258;2023-06-22T06:35:55;4.53;;;3.50;;
11731;SDS011;5922;53.734;10.258;2023-06-22T06:38:23;4.17;;;3.30;;
11731;SDS011;5922;53.734;10.258;2023-06-22T06:40:50;5.13;;;3.30;;
11731;SDS011;5922;53.734;10.258;2023-06-22T06:43:18;5.60;;;3.77;;
11731;SDS011;5922;53.734;10.258;2023-06-22T06:45:45;5.03;;;3.40;;
11731;SDS011;5922;53.734;10.258;2023-06-22T06:48:23;7.80;;;3.30;;
11731;SDS011;5922;53.734;10.258;2023-06-22T06:51:05;5.67;;;3.90;;
11731;SDS011;5922;53.734;10.258;2023-06-22T06:53:39;3.47;;;3.10;;
11731;SDS011;5922;53.734;10.258;2023-06-22T06:56:12;3.43;;;3.13;;
11731;SDS011;5922;53.734;10.258;2023-06-22T06:58:40;4.23;;;3.10;;
11731;SDS011;5922;53.734;10.258;2023-06-22T07:01:10;5.40;;;3.17;;
11731;SDS011;5922;53.734;10.258;2023-06-22T07:06:58;4.10;;;3.43;;
11731;SDS011;5922;53.734;10.258;2023-06-22T07:09:26;3.83;;;3.03;;
11731;SDS011;5922;53.734;10.258;2023-06-22T07:11:57;4.97;;;2.83;;
11731;SDS011;5922;53.734;10.258;2023-06-22T07:14:25;4.17;;;2.83;;
11731;SDS011;5922;53.734;10.258;2023-06-22T07:16:52;4.93;;;3.27;;
11731;SDS011;5922;53.734;10.258;2023-06-22T07:19:24;4.47;;;3.50;;
11731;SDS011;5922;53.734;10.258;2023-06-22T07:21:56;6.47;;;3.40;;
11731;SDS011;5922;53.734;10.258;2023-06-22T07:24:25;4.63;;;3.10;;
11731;SDS011;5922;53.734;10.258;2023-06-22T07:26:58;4.20;;;3.30;;
11731;SDS011;5922;53.734;10.258;2023-06-22T07:29:27;4.17;;;3.50;;
11731;SDS011;5922;53.734;10.258;2023-06-22T07:32:00;4.57;;;3.73;;
11731;SDS011;5922;53.734;10.258;2023-06-22T07:34:37;3.78;;;3.40;;
11731;SDS011;5922;53.734;10.258;2023-06-22T07:37:29;4.82;;;3.88;;
11731;SDS011;5922;53.734;10.258;2023-06-22T07:40:10;4.95;;;3.90;;
11731;SDS011;5922;53.734;10.258;2023-06-22T07:42:45;6.07;;;3.75;;
11731;SDS011;5922;53.734;10.258;2023-06-22T07:45:19;4.15;;;3.42;;
11731;SDS011;5922;53.734;10.258;2023-06-22T07:47:51;4.07;;;3.67;;
11731;SDS011;5922;53.734;10.258;2023-06-22T07:50:32;6.63;;;3.88;;
11731;SDS011;5922;53.734;10.258;2023-06-22T07:53:15;4.55;;;3.72;;
11731;SDS011;5922;53.734;10.258;2023-06-22T07:58:49;5.57;;;3.85;;
11731;SDS011;5922;53.734;10.258;2023-06-22T08:01:30;4.07;;;3.33;;
11731;SDS011;5922;53.734;10.258;2023-06-22T08:03:59;5.60;;;4.05;;
11731;SDS011;5922;53.734;10.258;2023-06-22T08:06:54;4.13;;;3.30;;
11731;SDS011;5922;53.734;10.258;2023-06-22T08:12:35;4.28;;;3.42;;
11731;SDS011;5922;53.734;10.258;2023-06-22T08:15:07;4.88;;;3.63;;
11731;SDS011;5922;53.734;10.258;2023-06-22T08:17:53;4.00;;;3.60;;
11731;SDS011;5922;53.734;10.258;2023-06-22T08:20:34;4.55;;;3.60;;
11731;SDS011;5922;53.734;10.258;2023-06-22T08:23:15;4.50;;;3.78;;
11731;SDS011;5922;53.734;10.258;2023-06-22T08:25:53;4.97;;;3.30;;
11731;SDS011;5922;53.734;10.258;2023-06-22T08:31:26;5.37;;;3.57;;
11731;SDS011;5922;53.734;10.258;2023-06-22T08:34:04;4.90;;;3.37;;
11731;SDS011;5922;53.734;10.258;2023-06-22T08:36:46;4.30;;;3.17;;
11731;SDS011;5922;53.734;10.258;2023-06-22T08:39:17;6.50;;;3.10;;
11731;SDS011;5922;53.734;10.258;2023-06-22T08:41:46;5.13;;;3.00;;
11731;SDS011;5922;53.734;10.258;2023-06-22T08:44:18;4.93;;;3.23;;
11731;SDS011;5922;53.734;10.258;2023-06-22T08:47:01;3.87;;;2.80;;
11731;SDS011;5922;53.734;10.258;2023-06-22T08:49:28;3.57;;;3.00;;
11731;SDS011;5922;53.734;10.258;2023-06-22T08:51:58;4.90;;;2.70;;
11731;SDS011;5922;53.734;10.258;2023-06-22T08:54:26;3.20;;;2.77;;
11731;SDS011;5922;53.734;10.258;2023-06-22T08:57:02;4.20;;;3.10;;
11731;SDS011;5922;53.734;10.258;2023-06-22T08:59:45;3.27;;;2.97;;
11731;SDS011;5922;53.734;10.258;2023-06-22T09:02:15;4.40;;;3.07;;
11731;SDS011;5922;53.734;10.258;2023-06-22T09:04:43;4.93;;;3.17;;
11731;SDS011;5922;53.734;10.258;2023-06-22T09:07:14;3.23;;;2.90;;
11731;SDS011;5922;53.734;10.258;2023-06-22T09:09:50;5.23;;;3.10;;
11731;SDS011;5922;53.734;10.258;2023-06-22T09:12:19;2.63;;;2.43;;
11731;SDS011;5922;53.734;10.258;2023-06-22T09:15:03;4.43;;;2.47;;
11731;SDS011;5922;53.734;10.258;2023-06-22T09:17:41;2.97;;;2.50;;
11731;SDS011;5922;53.734;10.258;2023-06-22T09:26:47;2.50;;;2.30;;
11731;SDS011;5922;53.734;10.258;2023-06-22T09:26:53;3.50;;;2.93;;
11731;SDS011;5922;53.734;10.258;2023-06-22T09:35:48;3.73;;;3.33;;
11731;SDS011;5922;53.734;10.258;2023-06-22T09:41:23;5.07;;;2.80;;
11731;SDS011;5922;53.734;10.258;2023-06-22T09:53:11;3.40;;;3.10;;
11731;SDS011;5922;53.734;10.258;2023-06-22T09:55:47;3.70;;;3.00;;
11731;SDS011;5922;53.734;10.258;2023-06-22T09:58:18;3.60;;;2.77;;
11731;SDS011;5922;53.734;10.258;2023-06-22T10:00:45;3.23;;;2.70;;
11731;SDS011;5922;53.734;10.258;2023-06-22T10:03:13;5.00;;;2.90;;
11731;SDS011;5922;53.734;10.258;2023-06-22T10:05:49;4.10;;;3.00;;
11731;SDS011;5922;53.734;10.258;2023-06-22T10:08:21;3.73;;;3.40;;
11731;SDS011;5922;53.734;10.258;2023-06-22T10:13:36;4.47;;;3.00;;
11731;SDS011;5922;53.734;10.258;2023-06-22T10:16:03;4.23;;;3.43;;
11731;SDS011;5922;53.734;10.258;2023-06-22T10:18:32;4.40;;;3.78;;
11731;SDS011;5922;53.734;10.258;2023-06-22T10:20:59;5.03;;;3.50;;
11731;SDS011;5922;53.734;10.258;2023-06-22T10:29:34;5.93;;;3.50;;
11731;SDS011;5922;53.734;10.258;2023-06-22T10:32:39;5.32;;;3.20;;
11731;SDS011;5922;53.734;10.258;2023-06-22T10:35:09;3.55;;;3.00;;
11731;SDS011;5922;53.734;10.258;2023-06-22T10:37:38;3.15;;;2.85;;
11731;SDS011;5922;53.734;10.258;2023-06-22T10:40:12;7.30;;;4.10;;
11731;SDS011;5922;53.734;10.258;2023-06-22T10:43:07;4.47;;;3.30;;
11731;SDS011;5922;53.734;10.258;2023-06-22T10:45:38;6.38;;;3.50;;
11731;SDS011;5922;53.734;10.258;2023-06-22T10:48:18;4.68;;;3.13;;
11731;SDS011;5922;53.734;10.258;2023-06-22T10:51:01;4.40;;;3.33;;
11731;SDS011;5922;53.734;10.258;2023-06-22T10:53:57;7.80;;;3.83;;
11731;SDS011;5922;53.734;10.258;2023-06-22T10:56:38;4.80;;;3.40;;
11731;SDS011;5922;53.734;10.258;2023-06-22T10:59:06;6.03;;;3.50;;
11731;SDS011;5922;53.734;10.258;2023-06-22T11:01:35;4.13;;;3.73;;
11731;SDS011;5922;53.734;10.258;2023-06-22T11:04:02;3.97;;;3.43;;
11731;SDS011;5922;53.734;10.258;2023-06-22T11:06:38;4.97;;;4.03;;
11731;SDS011;5922;53.734;10.258;2023-06-22T11:09:25;4.87;;;4.30;;
11731;SDS011;5922;53.734;10.258;2023-06-22T11:12:14;4.78;;;3.80;;
11731;SDS011;5922;53.734;10.258;2023-06-22T11:14:49;5.82;;;4.07;;
11731;SDS011;5922;53.734;10.258;2023-06-22T11:17:18;4.43;;;4.03;;
11731;SDS011;5922;53.734;10.258;2023-06-22T11:19:45;5.85;;;3.85;;
11731;SDS011;5922;53.734;10.258;2023-06-22T11:22:13;4.65;;;3.92;;
11731;SDS011;5922;53.734;10.258;2023-06-22T11:24:40;4.85;;;3.63;;
11731;SDS011;5922;53.734;10.258;2023-06-22T11:30:07;4.50;;;4.10;;
11731;SDS011;5922;53.734;10.258;2023-06-22T11:32:38;5.30;;;3.80;;
11731;SDS011;5922;53.734;10.258;2023-06-22T11:35:05;5.50;;;4.05;;
11731;SDS011;5922;53.734;10.258;2023-06-22T11:37:33;5.97;;;4.25;;
11731;SDS011;5922;53.734;10.258;2023-06-22T11:40:01;5.43;;;4.60;;
11731;SDS011;5922;53.734;10.258;2023-06-22T11:42:30;5.10;;;4.57;;
11731;SDS011;5922;53.734;10.258;2023-06-22T11:44:57;5.88;;;4.63;;
11731;SDS011;5922;53.734;10.258;2023-06-22T11:47:27;5.53;;;4.45;;
11731;SDS011;5922;53.734;10.258;2023-06-22T11:49:56;7.88;;;3.85;;
11731;SDS011;5922;53.734;10.258;2023-06-22T11:52:26;4.18;;;3.78;;
11731;SDS011;5922;53.734;10.258;2023-06-22T11:54:54;5.80;;;4.28;;
11731;SDS011;5922;53.734;10.258;2023-06-22T11:57:27;4.88;;;4.47;;
11731;SDS011;5922;53.734;10.258;2023-06-22T11:59:54;5.70;;;4.30;;
11731;SDS011;5922;53.734;10.258;2023-06-22T12:02:21;5.30;;;3.92;;
11731;SDS011;5922;53.734;10.258;2023-06-22T12:04:55;5.80;;;4.43;;
11731;SDS011;5922;53.734;10.258;2023-06-22T12:07:25;4.75;;;4.20;;
11731;SDS011;5922;53.734;10.258;2023-06-22T12:09:52;5.45;;;4.63;;
11731;SDS011;5922;53.734;10.258;2023-06-22T12:12:20;4.85;;;4.22;;
11731;SDS011;5922;53.734;10.258;2023-06-22T12:14:47;6.00;;;4.95;;
11731;SDS011;5922;53.734;10.258;2023-06-22T12:17:14;4.40;;;4.00;;
11731;SDS011;5922;53.734;10.258;2023-06-22T12:19:41;5.05;;;4.53;;
11731;SDS011;5922;53.734;10.258;2023-06-22T12:22:08;6.72;;;5.07;;
11731;SDS011;5922;53.734;10.258;2023-06-22T12:24:37;5.28;;;4.78;;
11731;SDS011;5922;53.734;10.258;2023-06-22T12:27:04;5.82;;;4.85;;
11731;SDS011;5922;53.734;10.258;2023-06-22T12:29:31;5.88;;;4.95;;
11731;SDS011;5922;53.734;10.258;2023-06-22T12:31:59;5.55;;;4.80;;
11731;SDS011;5922;53.734;10.258;2023-06-22T12:34:26;6.75;;;4.30;;
11731;SDS011;5922;53.734;10.258;2023-06-22T12:36:53;4.72;;;4.30;;
11731;SDS011;5922;53.734;10.258;2023-06-22T12:39:20;6.10;;;4.60;;
11731;SDS011;5922;53.734;10.258;2023-06-22T12:41:49;6.78;;;4.57;;
11731;SDS011;5922;53.734;10.258;2023-06-22T12:44:16;7.75;;;4.55;;
11731;SDS011;5922;53.734;10.258;2023-06-22T12:46:44;4.47;;;4.07;;
11731;SDS011;5922;53.734;10.258;2023-06-22T12:49:11;5.40;;;4.28;;
11731;SDS011;5922;53.734;10.258;2023-06-22T12:51:39;5.68;;;4.38;;
11731;SDS011;5922;53.734;10.258;2023-06-22T12:54:07;4.20;;;3.78;;
11731;SDS011;5922;53.734;10.258;2023-06-22T12:56:35;6.10;;;4.20;;
11731;SDS011;5922;53.734;10.258;2023-06-22T12:59:04;4.22;;;3.83;;
11731;SDS011;5922;53.734;10.258;2023-06-22T13:01:31;5.25;;;4.50;;
11731;SDS011;5922;53.734;10.258;2023-06-22T13:03:58;5.15;;;4.63;;
11731;SDS011;5922;53.734;10.258;2023-06-22T13:06:42;5.72;;;4.00;;
11731;SDS011;5922;53.734;10.258;2023-06-22T13:09:12;5.00;;;4.10;;
11731;SDS011;5922;53.734;10.258;2023-06-22T13:11:39;4.85;;;4.45;;
11731;SDS011;5922;53.734;10.258;2023-06-22T13:14:08;6.93;;;4.20;;
11731;SDS011;5922;53.734;10.258;2023-06-22T13:16:35;5.05;;;4.55;;
11731;SDS011;5922;53.734;10.258;2023-06-22T13:19:02;4.72;;;4.32;;
11731;SDS011;5922;53.734;10.258;2023-06-22T13:21:30;6.97;;;4.65;;
11731;SDS011;5922;53.734;10.258;2023-06-22T13:23:59;5.25;;;4.75;;
11731;SDS011;5922;53.734;10.258;2023-06-22T13:26:26;5.78;;;4.65;;
11731;SDS011;5922;53.734;10.258;2023-06-22T13:28:54;4.93;;;4.43;;
11731;SDS011;5922;53.734;10.258;2023-06-22T13:31:23;8.40;;;4.82;;
11731;SDS011;5922;53.734;10.258;2023-06-22T13:33:50;5.05;;;4.07;;
11731;SDS011;5922;53.734;10.258;2023-06-22T13:36:17;4.63;;;4.22;;
11731;SDS011;5922;53.734;10.258;2023-06-22T13:38:45;5.88;;;4.80;;
11731;SDS011;5922;53.734;10.258;2023-06-22T13:41:12;5.75;;;5.20;;
11731;SDS011;5922;53.734;10.258;2023-06-22T13:43:39;6.30;;;4.43;;
11731;SDS011;5922;53.734;10.258;2023-06-22T13:46:06;5.32;;;4.82;;
11731;SDS011;5922;53.734;10.258;2023-06-22T13:48:35;8.13;;;4.53;;
11731;SDS011;5922;53.734;10.258;2023-06-22T13:51:02;5.82;;;4.70;;
11731;SDS011;5922;53.734;10.258;2023-06-22T13:53:29;5.30;;;4.80;;
11731;SDS011;5922;53.734;10.258;2023-06-22T13:55:57;5.90;;;4.82;;
11731;SDS011;5922;53.734;10.258;2023-06-22T13:58:24;4.80;;;4.40;;
11731;SDS011;5922;53.734;10.258;2023-06-22T14:00:51;5.28;;;4.43;;
11731;SDS011;5922;53.734;10.258;2023-06-22T14:03:18;4.75;;;4.30;;
11731;SDS011;5922;53.734;10.258;2023-06-22T14:05:47;4.72;;;4.28;;
11731;SDS011;5922;53.734;10.258;2023-06-22T14:08:14;5.60;;;4.80;;
11731;SDS011;5922;53.734;10.258;2023-06-22T14:10:41;5.95;;;4.55;;
11731;SDS011;5922;53.734;10.258;2023-06-22T14:13:08;5.10;;;4.22;;
11731;SDS011;5922;53.734;10.258;2023-06-22T14:15:36;5.40;;;4.90;;
11731;SDS011;5922;53.734;10.258;2023-06-22T14:18:03;5.00;;;4.50;;
11731;SDS011;5922;53.734;10.258;2023-06-22T14:20:30;4.72;;;3.85;;
11731;SDS011;5922;53.734;10.258;2023-06-22T14:22:59;4.43;;;4.05;;
11731;SDS011;5922;53.734;10.258;2023-06-22T14:25:26;4.22;;;3.90;;
11731;SDS011;5922;53.734;10.258;2023-06-22T14:27:53;3.90;;;3.60;;
11731;SDS011;5922;53.734;10.258;2023-06-22T14:30:20;5.43;;;4.03;;
11731;SDS011;5922;53.734;10.258;2023-06-22T14:32:50;4.93;;;3.78;;
11731;SDS011;5922;53.734;10.258;2023-06-22T14:35:24;4.65;;;4.25;;
11731;SDS011;5922;53.734;10.258;2023-06-22T14:37:52;4.25;;;3.85;;
11731;SDS011;5922;53.734;10.258;2023-06-22T14:40:23;4.45;;;3.70;;
11731;SDS011;5922;53.734;10.258;2023-06-22T14:42:51;4.30;;;3.70;;
11731;SDS011;5922;53.734;10.258;2023-06-22T14:45:21;4.53;;;4.13;;
11731;SDS011;5922;53.734;10.258;2023-06-22T14:47:48;4.22;;;3.83;;
11731;SDS011;5922;53.734;10.258;2023-06-22T14:50:16;4.38;;;3.75;;
11731;SDS011;5922;53.734;10.258;2023-06-22T14:52:43;4.40;;;4.00;;
11731;SDS011;5922;53.734;10.258;2023-06-22T14:55:10;4.88;;;3.53;;
11731;SDS011;5922;53.734;10.258;2023-06-22T14:57:39;4.00;;;3.70;;
11731;SDS011;5922;53.734;10.258;2023-06-22T15:00:07;3.90;;;3.58;;
11731;SDS011;5922;53.734;10.258;2023-06-22T15:02:37;4.13;;;3.70;;
11731;SDS011;5922;53.734;10.258;2023-06-22T15:07:59;6.43;;;2.90;;
11731;SDS011;5922;53.734;10.258;2023-06-22T15:13:38;3.80;;;3.38;;
11731;SDS011;5922;53.734;10.258;2023-06-22T15:16:05;3.90;;;3.60;;
11731;SDS011;5922;53.734;10.258;2023-06-22T15:18:33;5.55;;;3.55;;
11731;SDS011;5922;53.734;10.258;2023-06-22T15:21:00;3.42;;;3.13;;
11731;SDS011;5922;53.734;10.258;2023-06-22T15:23:31;5.90;;;4.10;;
11731;SDS011;5922;53.734;10.258;2023-06-22T15:26:02;3.95;;;3.47;;
11731;SDS011;5922;53.734;10.258;2023-06-22T15:28:39;3.35;;;3.10;;
11731;SDS011;5922;53.734;10.258;2023-06-22T15:31:06;4.05;;;3.28;;
11731;SDS011;5922;53.734;10.258;2023-06-22T15:33:36;4.82;;;3.40;;
11731;SDS011;5922;53.734;10.258;2023-06-22T15:36:12;6.47;;;3.03;;
11731;SDS011;5922;53.734;10.258;2023-06-22T15:38:51;4.22;;;3.13;;
11731;SDS011;5922;53.734;10.258;2023-06-22T15:41:18;4.53;;;3.10;;
11731;SDS011;5922;53.734;10.258;2023-06-22T15:43:48;4.30;;;3.17;;
11731;SDS011;5922;53.734;10.258;2023-06-22T15:46:22;4.03;;;2.90;;
11731;SDS011;5922;53.734;10.258;2023-06-22T15:48:49;8.67;;;3.10;;
11731;SDS011;5922;53.734;10.258;2023-06-22T15:51:20;7.20;;;3.40;;
11731;SDS011;5922;53.734;10.258;2023-06-22T15:53:48;4.30;;;3.27;;
11731;SDS011;5922;53.734;10.258;2023-06-22T15:59:05;3.50;;;2.97;;
11731;SDS011;5922;53.734;10.258;2023-06-22T16:04:17;4.03;;;3.20;;
11731;SDS011;5922;53.734;10.258;2023-06-22T16:06:44;5.93;;;3.23;;